• Join FlightAware (Why Join?)
  • Login
  • US Flag 
07:56PM EST


 

Airport Tracker/Info


-or-


 

Live Flight TrackerFlight Track Log ✈ N775NC ✈ 18-Oct-2013 ✈ KPNS - KATL

Flight Track Log - Related Links

Times and Time Zones

All times are in EDT time to prevent confusion due to time zone crossing. See the N775NC flight status page for this flight to view local times or setup timezone preferences in your user account.

Time Position Orientation Groundspeed Altitude Reporting Facility
EDT Latitude Longitude Course Direction KTS MPH feet Rate Location/Type
04:00PM 30.5556 -87.1789 15° North 189 217 2,300  Level Jacksonville Center
04:01PM 30.6092 -87.1381 33° Northeast 211 243 4,400 1,800 Climbing Jacksonville Center
04:02PM 30.7197 -86.9803 25° Northeast  Level Estimated
04:02PM 30.6811 -87.1072 20° North 236 272 5,900  Level Jacksonville Center
04:03PM 30.8190 -86.9578 11° North  Level FlightAware Approximate
04:03PM 30.7456 -87.0497 37° Northeast 272 313 8,500  Level Jacksonville Center
04:04PM 30.9003 -86.8876 23° Northeast  Level Estimated
04:04PM 30.8044 -86.9750 47° Northeast 285 328 10,200  Level Jacksonville Center
04:05PM 30.9995 -86.8641 11° North  Level FlightAware Approximate
04:05PM 30.8858 -86.9083 35° Northeast 317 365 11,200  Level Jacksonville Center
04:06PM 30.9736 -86.8417 33° Northeast 351 404 13,300 1,920 Climbing Jacksonville Center
04:08PM 31.1614 -86.7017 33° Northeast 392 451 17,000 1,680 Climbing Jacksonville Center
04:09PM 31.2617 -86.6303 31° Northeast 403 464 18,500 1,500 Climbing Jacksonville Center
04:10PM 31.3603 -86.5492 35° Northeast 417 480 20,000 1,380 Climbing Jacksonville Center
04:11PM 31.4606 -86.4678 35° Northeast 430 495 21,300 1,260 Climbing Jacksonville Center
04:12PM 31.5714 -86.3892 31° Northeast 443 510 22,600 840 Climbing Jacksonville Center
04:14PM 31.8092 -86.2042 33° Northeast 533 613 24,000 840 Climbing Atlanta Center
04:15PM 31.9422 -86.1094 31° Northeast 518 596 25,300 1,080 Climbing Atlanta Center
04:16PM 32.0606 -86.0167 34° Northeast 513 590 26,200 720 Climbing Atlanta Center
04:17PM 32.1811 -85.9211 34° Northeast 513 590 26,800 360 Climbing Atlanta Center
04:18PM 32.3036 -85.8131 37° Northeast 524 603 27,000 60 Climbing Atlanta Center
04:19PM 32.4303 -85.7122 34° Northeast 535 616 27,000 -120 Level Atlanta Center
04:20PM 32.5550 -85.6061 36° Northeast 542 624 26,800 -1,020 Descending Atlanta Center
04:21PM 32.6731 -85.5047 36° Northeast 542 624 25,000 -2,280 Descending Atlanta Center
04:22PM 32.7869 -85.4078 36° Northeast 520 598 22,300 -2,520 Descending Atlanta Center
04:23PM 32.9006 -85.3253 31° Northeast 500 575 20,000 -2,580 Descending Atlanta Center
04:24PM 33.0036 -85.2403 35° Northeast 473 544 17,200 -2,820 Descending Atlanta Center
04:25PM 33.1003 -85.1572 36° Northeast 448 516 14,400 -1,620 Descending Atlanta Center
04:26PM 33.1764 -85.0489 50° Northeast 418 481 14,000 -300 Descending Atlanta Center
04:27PM 33.2586 -84.9381 48° Northeast 426 490 13,800 -660 Descending Atlanta Center
04:28PM 33.3408 -84.8344 46° Northeast 432 497 12,700 -900 Descending Atlanta Center
04:29PM 33.4167 -84.7306 49° Northeast 421 484 12,000 -360 Descending Atlanta Center
04:30PM 33.4903 -84.6367 47° Northeast 397 457 12,000 -300 Level Atlanta Center
04:31PM 33.5406 -84.5447 57° Northeast 342 394 11,500 -1,080 Descending Atlanta Center
04:32PM 33.5514 -84.4525 82° East 280 322 9,900 -1,620 Descending Atlanta Center
04:33PM 33.5500 -84.3667 91° East 269 310 8,400 -1,920 Descending Atlanta TRACON
04:34PM 33.5500 -84.2833 90° East 257 296 6,200 -1,980 Descending Atlanta TRACON
04:35PM 33.5667 -84.2000 76° East 257 296 4,500 -1,620 Descending Atlanta TRACON
04:36PM 33.6000 -84.2500 309° West 202 232 3,200 -960 Descending Atlanta TRACON
04:37PM 33.6167 -84.3167 287° West 187 215 2,700 -720 Descending Atlanta TRACON
04:38PM 33.6167 -84.3667 270° West 153 176 1,800 -900 Descending Atlanta TRACON